Time;durP1;ratioP1;P1;durP2;ratioP2;P2;SDS_P1;SDS_P2;PMS_P1;PMS_P2;Temp;Humidity;BMP_temperature;BMP_pressure;BME280_temperature;BME280_humidity;BME280_pressure;Samples;Min_cycle;Max_cycle;Signal;HPM_P1;HPM_P2
2024/04/19 00:00:12;;;;;;;20.30;16.70;;;;;;;1.78;100.00;98654.79;109523;1253;59786;-72
2024/04/19 00:02:58;;;;;;;23.40;19.50;;;;;;;1.75;100.00;98656.98;109499;1253;64165;-71
2024/04/19 00:05:24;;;;;;;19.10;15.70;;;;;;;1.71;100.00;98657.67;109465;1253;59781;-72
2024/04/19 00:07:50;;;;;;;20.40;17.00;;;;;;;1.67;100.00;98658.34;109560;1252;59992;-73
2024/04/19 00:10:17;;;;;;;20.70;15.90;;;;;;;1.64;100.00;98657.39;109509;1253;60033;-72
2024/04/19 00:12:43;;;;;;;21.00;17.30;;;;;;;1.60;100.00;98653.15;109485;1253;59850;-72
2024/04/19 00:15:09;;;;;;;22.80;15.80;;;;;;;1.58;100.00;98653.92;109508;1252;60221;-73
2024/04/19 00:17:36;;;;;;;21.40;16.30;;;;;;;1.56;100.00;98651.73;109502;1253;59831;-72
2024/04/19 00:20:02;;;;;;;20.30;15.70;;;;;;;1.52;100.00;98647.83;109498;1251;59899;-73
2024/04/19 00:22:29;;;;;;;17.20;13.40;;;;;;;1.50;100.00;98651.25;109090;1253;59805;-72
2024/04/19 00:24:55;;;;;;;19.10;13.90;;;;;;;1.46;100.00;98647.70;109563;1252;59849;-73
2024/04/19 00:27:21;;;;;;;18.60;13.20;;;;;;;1.44;100.00;98646.73;109472;1252;59865;-71
2024/04/19 00:29:48;;;;;;;22.20;13.60;;;;;;;1.41;100.00;98642.13;109486;1251;59803;-72
2024/04/19 00:32:14;;;;;;;18.80;12.90;;;;;;;1.37;100.00;98642.61;109575;1253;59802;-72
2024/04/19 00:34:40;;;;;;;18.80;12.70;;;;;;;1.32;100.00;98644.70;109521;1252;59820;-73
2024/04/19 00:37:06;;;;;;;18.80;13.60;;;;;;;1.31;100.00;98645.10;109500;1252;59899;-72
2024/04/19 00:39:33;;;;;;;17.50;13.60;;;;;;;1.30;100.00;98644.44;109515;1253;60142;-72
2024/04/19 00:41:59;;;;;;;22.30;16.30;;;;;;;1.25;100.00;98645.83;109484;1252;59873;-73
2024/04/19 00:44:30;;;;;;;24.70;16.30;;;;;;;1.21;100.00;98648.78;109147;1252;59915;-73
2024/04/19 00:47:01;;;;;;;26.20;18.80;;;;;;;1.17;100.00;98649.77;109489;1251;66811;-71
2024/04/19 00:49:28;;;;;;;;;;;;;;;1.14;100.00;98646.23;109476;1253;69669;-72
2024/04/19 00:51:56;;;;;;;25.80;17.80;;;;;;;1.10;100.00;98648.78;109475;1253;64960;-72
2024/04/19 00:54:22;;;;;;;24.00;17.50;;;;;;;1.06;100.00;98647.87;109487;1252;59795;-72
2024/04/19 00:56:50;;;;;;;25.50;19.30;;;;;;;1.04;100.00;98648.80;109484;1253;59923;-72
2024/04/19 00:59:16;;;;;;;22.90;18.00;;;;;;;1.02;100.00;98648.89;109503;1252;67836;-71
2024/04/19 01:01:43;;;;;;;23.20;17.10;;;;;;;1.02;100.00;98647.83;109530;1252;59845;-73
2024/04/19 01:04:09;;;;;;;24.90;18.60;;;;;;;1.03;100.00;98644.30;109512;1252;60112;-72
2024/04/19 01:06:35;;;;;;;25.80;19.20;;;;;;;1.03;100.00;98642.20;109510;1253;59744;-73
2024/04/19 01:09:03;;;;;;;25.10;19.20;;;;;;;1.03;100.00;98638.89;109543;1252;59934;-72
2024/04/19 01:11:30;;;;;;;25.70;20.50;;;;;;;1.04;100.00;98638.48;109484;1251;66912;-72
2024/04/19 01:13:57;;;;;;;28.50;20.50;;;;;;;1.06;100.00;98634.92;109479;1253;59974;-72
2024/04/19 01:16:24;;;;;;;25.50;20.20;;;;;;;1.09;100.00;98631.34;109494;1253;59873;-73
2024/04/19 01:18:50;;;;;;;21.50;18.10;;;;;;;1.11;100.00;98637.40;109512;1253;59782;-73
2024/04/19 01:21:20;;;;;;;23.70;17.20;;;;;;;1.13;100.00;98646.61;109501;1252;59807;-73
2024/04/19 01:23:49;;;;;;;18.50;15.70;;;;;;;1.15;100.00;98645.29;109533;1252;68010;-72
2024/04/19 01:26:16;;;;;;;20.70;16.00;;;;;;;1.16;100.00;98644.38;109495;1253;59746;-72
2024/04/19 01:28:44;;;;;;;22.50;15.90;;;;;;;1.18;100.00;98642.92;109449;1252;59793;-73
2024/04/19 01:31:10;;;;;;;21.90;16.40;;;;;;;1.18;100.00;98643.79;109489;1253;59972;-72
2024/04/19 01:33:36;;;;;;;23.30;16.60;;;;;;;1.17;100.00;98643.83;109260;1253;59672;-72
2024/04/19 01:36:03;;;;;;;20.70;16.50;;;;;;;1.16;100.00;98647.73;109491;1251;59891;-72
2024/04/19 01:38:29;;;;;;;21.10;15.90;;;;;;;1.16;100.00;98643.34;109519;1252;59828;-72
2024/04/19 01:40:56;;;;;;;24.10;16.80;;;;;;;1.16;100.00;98642.13;109474;1251;59824;-72
2024/04/19 01:43:22;;;;;;;21.70;16.00;;;;;;;1.16;100.00;98640.73;109534;1252;59725;-72
2024/04/19 01:45:48;;;;;;;20.10;15.30;;;;;;;1.15;100.00;98638.65;109502;1251;59827;-72
2024/04/19 01:48:14;;;;;;;27.50;18.10;;;;;;;1.15;100.00;98635.31;109523;1252;60405;-73
2024/04/19 01:50:41;;;;;;;22.80;17.50;;;;;;;1.16;100.00;98638.28;109526;1253;59806;-72
2024/04/19 01:53:07;;;;;;;21.10;17.30;;;;;;;1.15;100.00;98640.39;109512;1252;59913;-72
2024/04/19 01:55:33;;;;;;;23.00;17.00;;;;;;;1.17;100.00;98642.98;109324;1254;60146;-72
2024/04/19 01:58:00;;;;;;;19.60;16.20;;;;;;;1.19;100.00;98642.02;109573;1251;59858;-72
2024/04/19 02:00:26;;;;;;;18.40;14.50;;;;;;;1.21;100.00;98639.83;109478;1253;60169;-72
2024/04/19 02:02:53;;;;;;;18.70;15.00;;;;;;;1.24;100.00;98636.92;109537;1252;60666;-72
2024/04/19 02:05:19;;;;;;;24.00;15.90;;;;;;;1.27;100.00;98634.21;109514;1254;59825;-71
2024/04/19 02:07:45;;;;;;;20.00;15.70;;;;;;;1.30;100.00;98632.17;109508;1252;60044;-72
2024/04/19 02:10:12;;;;;;;20.10;15.00;;;;;;;1.33;100.00;98634.89;109539;1253;59876;-73
2024/04/19 02:12:38;;;;;;;17.70;14.40;;;;;;;1.37;100.00;98633.17;109520;1252;60125;-72
2024/04/19 02:15:05;;;;;;;17.30;13.30;;;;;;;1.40;100.00;98633.58;109528;1254;59844;-73
2024/04/19 02:17:31;;;;;;;19.10;13.80;;;;;;;1.43;100.00;98635.05;109492;1251;59837;-73
2024/04/19 02:19:57;;;;;;;16.20;12.90;;;;;;;1.45;100.00;98634.44;109539;1253;59793;-72
2024/04/19 02:22:24;;;;;;;14.60;11.80;;;;;;;1.47;100.00;98632.60;109520;1254;59806;-72
2024/04/19 02:24:50;;;;;;;17.60;14.40;;;;;;;1.49;100.00;98630.97;109502;1253;59799;-73
2024/04/19 02:32:46;;;;;;;15.30;12.20;;;;;;;1.50;100.00;98624.98;109179;1252;59846;-72
2024/04/19 02:35:12;;;;;;;16.50;12.40;;;;;;;1.51;100.00;98625.65;109505;1252;59854;-72
2024/04/19 02:37:38;;;;;;;16.90;12.60;;;;;;;1.53;100.00;98620.33;109493;1253;59941;-72
2024/04/19 02:40:05;;;;;;;13.80;9.90;;;;;;;1.56;100.00;98619.87;109569;1252;60587;-72
2024/04/19 02:42:32;;;;;;;13.50;10.50;;;;;;;1.58;100.00;98616.45;109485;1252;64073;-72
2024/04/19 02:44:58;;;;;;;12.90;10.40;;;;;;;1.60;100.00;98612.02;109496;1253;59770;-72
2024/04/19 02:47:24;;;;;;;13.90;11.60;;;;;;;1.62;100.00;98606.70;109507;1253;59833;-72
2024/04/19 02:49:51;;;;;;;14.90;11.40;;;;;;;1.63;100.00;98605.44;109515;1252;59838;-72
2024/04/19 02:52:17;;;;;;;15.60;12.30;;;;;;;1.64;100.00;98608.55;108732;1254;1002372;-72
2024/04/19 02:54:43;;;;;;;13.70;10.80;;;;;;;1.65;100.00;98604.83;109502;1253;59879;-73
2024/04/19 02:57:09;;;;;;;15.80;11.30;;;;;;;1.66;100.00;98599.56;109492;1252;59707;-72
2024/04/19 02:59:36;;;;;;;14.60;12.00;;;;;;;1.69;100.00;98601.73;109492;1252;60225;-72
2024/04/19 03:02:02;;;;;;;13.60;11.40;;;;;;;1.70;100.00;98598.68;109505;1252;59718;-72
2024/04/19 03:04:29;;;;;;;14.30;11.60;;;;;;;1.72;100.00;98593.01;109486;1252;60037;-72
2024/04/19 03:06:55;;;;;;;12.30;11.00;;;;;;;1.72;100.00;98593.17;109452;1252;60150;-72
2024/04/19 03:09:21;;;;;;;14.10;11.50;;;;;;;1.71;100.00;98590.95;109456;1253;59778;-73
2024/04/19 03:11:48;;;;;;;14.50;11.50;;;;;;;1.69;100.00;98593.98;108802;1253;1006736;-72
2024/04/19 03:14:14;;;;;;;13.30;11.50;;;;;;;1.67;100.00;98595.45;109492;1254;59903;-73
2024/04/19 03:16:40;;;;;;;11.80;10.40;;;;;;;1.66;100.00;98594.10;109548;1253;59883;-71
2024/04/19 03:19:07;;;;;;;11.70;10.00;;;;;;;1.67;100.00;98592.85;109508;1252;59795;-72
2024/04/19 03:21:34;;;;;;;14.40;10.60;;;;;;;1.68;100.00;98587.56;109469;1252;59919;-72
2024/04/19 03:24:00;;;;;;;11.10;9.90;;;;;;;1.69;100.00;98584.56;109519;1253;59841;-71
2024/04/19 03:26:27;;;;;;;13.20;10.90;;;;;;;1.68;100.00;98580.38;109522;1251;60207;-72
2024/04/19 03:28:53;;;;;;;12.20;10.80;;;;;;;1.67;100.00;98579.88;109513;1254;59883;-73
2024/04/19 03:31:19;;;;;;;13.40;10.90;;;;;;;1.66;100.00;98583.23;109511;1252;59993;-72
2024/04/19 03:33:46;;;;;;;12.60;10.00;;;;;;;1.65;100.00;98582.56;109549;1251;59745;-72
2024/04/19 03:36:12;;;;;;;16.20;10.60;;;;;;;1.67;100.00;98581.27;109540;1251;59851;-72
2024/04/19 03:38:38;;;;;;;15.20;11.10;;;;;;;1.70;100.00;98575.90;109487;1254;59754;-73
2024/04/19 03:41:05;;;;;;;13.00;9.90;;;;;;;1.75;100.00;98573.83;109511;1253;59829;-72
2024/04/19 03:43:40;;;;;;;14.20;10.40;;;;;;;1.81;100.00;98576.57;109482;1252;59832;-73
2024/04/19 03:46:07;;;;;;;10.60;8.40;;;;;;;1.86;100.00;98575.65;109480;1252;59747;-73
2024/04/19 03:48:33;;;;;;;12.50;9.30;;;;;;;1.88;100.00;98574.52;109512;1253;59675;-72
2024/04/19 03:51:00;;;;;;;11.20;8.90;;;;;;;1.89;100.00;98573.25;109503;1253;59873;-71
2024/04/19 03:53:26;;;;;;;13.10;8.40;;;;;;;1.90;100.00;98575.34;109498;1252;59956;-73
2024/04/19 03:55:52;;;;;;;10.20;8.70;;;;;;;1.89;100.00;98573.42;109495;1252;59904;-71
2024/04/19 03:58:19;;;;;;;13.00;8.60;;;;;;;1.90;100.00;98573.59;109534;1252;59782;-72
2024/04/19 04:00:47;;;;;;;10.40;8.90;;;;;;;1.90;100.00;98571.30;109507;1253;60307;-71
2024/04/19 04:03:13;;;;;;;10.60;8.20;;;;;;;1.90;100.00;98570.42;109513;1253;67124;-71
2024/04/19 04:05:40;;;;;;;14.50;10.80;;;;;;;1.91;100.00;98569.14;109530;1253;59788;-71
2024/04/19 04:08:06;;;;;;;17.50;13.30;;;;;;;2.13;100.00;98567.95;109530;1253;59785;-72
2024/04/19 04:10:32;;;;;;;14.50;12.10;;;;;;;2.75;100.00;98563.67;109177;1253;60114;-71
2024/04/19 04:12:59;;;;;;;13.30;10.60;;;;;;;3.34;100.00;98563.91;109461;1252;59853;-72
2024/04/19 04:15:25;;;;;;;13.10;9.60;;;;;;;3.84;100.00;98565.86;109533;1252;59818;-71
2024/04/19 04:17:51;;;;;;;9.50;8.50;;;;;;;4.29;100.00;98564.44;109475;1254;60234;-72
2024/04/19 04:20:18;;;;;;;11.10;7.60;;;;;;;4.73;100.00;98564.39;109489;1251;60381;-72
2024/04/19 04:22:44;;;;;;;9.40;7.70;;;;;;;5.24;100.00;98564.06;109487;1253;59786;-72
2024/04/19 04:25:10;;;;;;;8.90;7.50;;;;;;;5.73;100.00;98569.23;109493;1251;59816;-72
2024/04/19 04:27:37;;;;;;;9.80;8.80;;;;;;;6.15;100.00;98563.79;109504;1252;59740;-72
2024/04/19 04:30:03;;;;;;;8.90;8.00;;;;;;;6.59;100.00;98556.73;109572;1253;60073;-73
2024/04/19 04:32:30;;;;;;;8.50;7.70;;;;;;;6.97;100.00;98555.54;109221;1252;59916;-73
2024/04/19 04:34:56;;;;;;;8.90;7.80;;;;;;;7.33;100.00;98554.28;109514;1253;60200;-73
2024/04/19 04:37:22;;;;;;;10.90;8.80;;;;;;;7.51;100.00;98551.73;109153;1252;60102;-73
2024/04/19 04:39:49;;;;;;;11.10;9.40;;;;;;;7.74;100.00;98547.67;109521;1252;59806;-71
2024/04/19 04:42:15;;;;;;;11.20;9.10;;;;;;;8.08;100.00;98543.91;109502;1252;59838;-74
2024/04/19 04:44:42;;;;;;;10.90;8.60;;;;;;;8.28;100.00;98539.98;109238;1253;59940;-71
2024/04/19 04:47:08;;;;;;;13.30;8.70;;;;;;;8.33;100.00;98541.93;109514;1252;59721;-71
2024/04/19 04:49:34;;;;;;;10.50;7.60;;;;;;;8.49;100.00;98540.74;109490;1252;59862;-72
2024/04/19 04:52:01;;;;;;;10.80;7.20;;;;;;;8.64;100.00;98541.75;109557;1252;60156;-72
2024/04/19 04:54:29;;;;;;;8.90;7.30;;;;;;;8.82;100.00;98541.59;109525;1252;59841;-73
2024/04/19 04:56:55;;;;;;;9.20;6.70;;;;;;;8.87;100.00;98542.52;109494;1252;59895;-74
2024/04/19 04:59:21;;;;;;;7.80;5.90;;;;;;;8.82;100.00;98541.75;109469;1254;59752;-72
2024/04/19 05:01:48;;;;;;;6.30;5.70;;;;;;;8.75;100.00;98535.90;109529;1253;60381;-73
2024/04/19 05:04:14;;;;;;;7.50;5.60;;;;;;;8.93;100.00;98532.91;109494;1255;59896;-72
2024/04/19 05:06:41;;;;;;;10.70;6.60;;;;;;;9.14;100.00;98529.14;109505;1251;60138;-72
2024/04/19 05:09:07;;;;;;;8.10;6.10;;;;;;;9.37;100.00;98527.54;109484;1254;60128;-72
2024/04/19 05:11:33;;;;;;;7.50;5.80;;;;;;;9.61;100.00;98527.47;109468;1252;59970;-73
2024/04/19 05:14:00;;;;;;;8.60;5.90;;;;;;;9.83;100.00;98526.65;109454;1254;59989;-72
2024/04/19 05:16:26;;;;;;;9.40;5.50;;;;;;;10.06;100.00;98527.61;109563;1253;60139;-72
2024/04/19 05:18:54;;;;;;;6.80;5.20;;;;;;;10.08;100.00;98526.39;109512;1252;59903;-72
2024/04/19 05:21:20;;;;;;;7.80;5.00;;;;;;;10.16;100.00;98523.92;109503;1253;60026;-72
2024/04/19 05:23:47;;;;;;;7.20;4.90;;;;;;;10.43;100.00;98524.63;109500;1252;60041;-72
2024/04/19 05:26:14;;;;;;;6.20;4.60;;;;;;;10.41;100.00;98523.70;109548;1253;59677;-71
2024/04/19 05:28:40;;;;;;;7.80;4.70;;;;;;;9.93;100.00;98528.95;109466;1252;59837;-72
2024/04/19 05:31:06;;;;;;;5.60;4.50;;;;;;;9.16;100.00;98530.79;109493;1251;59994;-72
2024/04/19 05:33:33;;;;;;;6.90;5.30;;;;;;;8.50;100.00;98532.57;109519;1254;59887;-71
2024/04/19 05:35:59;;;;;;;7.10;5.00;;;;;;;8.03;100.00;98535.96;109516;1252;59792;-72
2024/04/19 05:38:25;;;;;;;5.20;4.40;;;;;;;8.39;100.00;98532.59;109529;1253;59876;-71
2024/04/19 05:40:52;;;;;;;4.90;3.60;;;;;;;8.68;100.00;98527.86;109561;1252;59860;-72
2024/04/19 05:43:18;;;;;;;5.70;3.80;;;;;;;8.63;100.00;98526.59;109534;1254;59839;-72
2024/04/19 05:45:44;;;;;;;6.20;3.80;;;;;;;9.07;100.00;98523.60;109477;1252;59859;-72
2024/04/19 05:48:13;;;;;;;5.20;3.80;;;;;;;9.53;100.00;98521.52;109494;1252;59944;-72
2024/04/19 05:50:39;;;;;;;4.90;3.90;;;;;;;10.04;100.00;98516.05;109532;1254;59957;-73
2024/04/19 05:53:06;;;;;;;4.10;3.50;;;;;;;10.01;100.00;98511.86;109485;1252;66842;-72
2024/04/19 05:55:32;;;;;;;3.90;3.30;;;;;;;9.46;100.00;98514.68;109501;1252;59998;-72
2024/04/19 05:57:59;;;;;;;3.70;3.10;;;;;;;8.88;100.00;98513.91;109195;1252;59900;-72
2024/04/19 06:00:25;;;;;;;3.80;3.10;;;;;;;8.34;100.00;98513.42;109499;1254;59783;-73
2024/04/19 06:02:51;;;;;;;5.30;3.20;;;;;;;8.09;100.00;98515.19;109490;1253;59893;-73
2024/04/19 06:05:18;;;;;;;4.90;3.40;;;;;;;8.57;100.00;98517.73;109564;1252;59964;-72
2024/04/19 06:07:46;;;;;;;5.10;3.80;;;;;;;9.03;100.00;98511.68;109527;1253;59773;-72
2024/04/19 06:10:12;;;;;;;4.50;3.70;;;;;;;9.41;100.00;98506.56;109461;1253;64137;-73
2024/04/19 06:12:39;;;;;;;6.90;3.60;;;;;;;9.47;100.00;98508.10;109467;1253;59761;-72
2024/04/19 06:15:05;;;;;;;7.70;3.60;;;;;;;9.35;100.00;98506.62;109534;1254;59848;-73
2024/04/19 06:17:32;;;;;;;7.90;4.60;;;;;;;9.51;100.00;98504.45;109167;1254;59771;-72
2024/04/19 06:19:59;;;;;;;11.40;5.10;;;;;;;9.73;100.00;98498.41;109520;1253;60825;-73
2024/04/19 06:22:25;;;;;;;6.10;3.60;;;;;;;9.90;100.00;98494.41;109518;1253;64839;-72
2024/04/19 06:24:51;;;;;;;4.50;3.10;;;;;;;9.99;100.00;98495.14;109495;1253;59774;-73
2024/04/19 06:27:18;;;;;;;4.20;3.10;;;;;;;10.12;100.00;98493.34;109531;1253;59981;-73
2024/04/19 06:29:44;;;;;;;6.10;2.90;;;;;;;10.19;100.00;98491.05;109509;1252;60060;-72
2024/04/19 06:32:10;;;;;;;4.20;2.80;;;;;;;10.28;100.00;98493.23;109533;1253;59830;-73
2024/04/19 06:34:37;;;;;;;3.80;2.30;;;;;;;10.32;100.00;98487.23;109488;1253;60304;-72
2024/04/19 06:37:04;;;;;;;2.60;2.40;;;;;;;10.31;100.00;98483.05;109505;1252;59912;-73
2024/04/19 06:39:30;;;;;;;3.10;2.20;;;;;;;10.30;100.00;98482.25;109521;1253;59841;-72
2024/04/19 06:41:57;;;;;;;2.90;2.10;;;;;;;10.32;100.00;98486.03;109486;1253;59896;-72
2024/04/19 06:44:24;;;;;;;2.60;1.90;;;;;;;10.24;100.00;98482.31;109542;1253;60112;-72
2024/04/19 06:46:50;;;;;;;3.30;2.10;;;;;;;10.18;100.00;98480.46;109537;1253;64404;-72
2024/04/19 06:49:17;;;;;;;2.00;1.90;;;;;;;10.18;100.00;98478.35;109493;1253;59706;-73
2024/04/19 06:51:43;;;;;;;5.30;2.20;;;;;;;10.11;100.00;98476.70;109526;1253;60149;-71
2024/04/19 06:54:10;;;;;;;3.70;2.20;;;;;;;10.08;100.00;98471.79;109523;1254;59810;-72
2024/04/19 06:56:36;;;;;;;4.60;2.50;;;;;;;9.95;100.00;98473.41;109532;1253;59804;-72
2024/04/19 06:59:02;;;;;;;3.10;2.20;;;;;;;9.66;100.00;98470.23;109444;1253;59825;-74
2024/04/19 07:01:29;;;;;;;5.10;2.60;;;;;;;9.51;100.00;98467.90;109496;1253;59843;-72
2024/04/19 07:03:55;;;;;;;3.20;2.40;;;;;;;9.50;100.00;98467.97;109524;1254;59825;-73
2024/04/19 07:06:22;;;;;;;3.50;2.10;;;;;;;9.48;100.00;98463.51;109512;1253;59826;-71
2024/04/19 07:08:49;;;;;;;4.20;2.20;;;;;;;9.44;100.00;98459.16;109530;1253;60213;-73
2024/04/19 07:11:15;;;;;;;3.50;2.00;;;;;;;9.44;100.00;98457.73;109514;1253;60147;-72
2024/04/19 07:13:46;;;;;;;3.50;1.70;;;;;;;9.42;100.00;98452.71;109506;1252;59923;-72
2024/04/19 07:16:13;;;;;;;3.30;1.80;;;;;;;9.36;100.00;98455.70;109507;1254;59876;-71
2024/04/19 07:18:39;;;;;;;4.30;1.90;;;;;;;9.35;100.00;98454.86;109433;1253;66949;-71
2024/04/19 07:21:06;;;;;;;2.40;1.90;;;;;;;9.31;100.00;98448.55;109140;1253;60257;-72
2024/04/19 07:23:32;;;;;;;2.20;2.00;;;;;;;9.23;100.00;98446.31;109439;1253;59868;-71
2024/04/19 07:25:58;;;;;;;3.00;1.60;;;;;;;9.18;100.00;98448.25;109427;1253;59827;-73
2024/04/19 07:28:25;;;;;;;3.60;1.90;;;;;;;9.24;100.00;98446.92;109444;1252;59883;-73
2024/04/19 07:30:51;;;;;;;3.40;2.00;;;;;;;9.30;100.00;98444.59;109498;1253;59869;-72
2024/04/19 07:33:17;;;;;;;4.70;2.20;;;;;;;9.41;100.00;98442.91;109446;1256;60568;-72
2024/04/19 07:35:44;;;;;;;4.00;3.00;;;;;;;9.63;100.00;98440.25;109448;1253;60136;-73
2024/04/19 07:38:11;;;;;;;4.70;2.50;;;;;;;10.02;100.00;98441.71;109398;1253;59953;-72
2024/04/19 07:40:38;;;;;;;2.00;1.80;;;;;;;10.29;100.00;98432.45;109461;1253;59951;-72
2024/04/19 07:43:04;;;;;;;3.50;2.20;;;;;;;10.50;100.00;98431.58;109384;1253;59835;-72
2024/04/19 07:45:30;;;;;;;3.10;2.30;;;;;;;10.51;100.00;98432.18;109460;1253;59788;-72
2024/04/19 07:47:57;;;;;;;4.30;2.20;;;;;;;10.48;100.00;98435.27;109169;1253;64085;-72
2024/04/19 07:50:24;;;;;;;2.30;2.00;;;;;;;10.50;100.00;98434.60;109412;1253;59746;-72
2024/04/19 07:52:50;;;;;;;2.50;1.80;;;;;;;10.45;100.00;98433.36;109429;1253;60244;-72
2024/04/19 07:55:16;;;;;;;4.20;2.20;;;;;;;10.39;100.00;98430.10;109311;1253;60198;-72
2024/04/19 07:57:50;;;;;;;4.50;1.70;;;;;;;10.34;100.00;98429.92;109429;1253;60105;-72
2024/04/19 08:00:17;;;;;;;2.00;1.40;;;;;;;10.28;100.00;98424.85;109423;1253;62868;-73
2024/04/19 08:02:44;;;;;;;2.10;1.60;;;;;;;10.22;100.00;98418.20;109431;1253;59784;-72
2024/04/19 08:05:11;;;;;;;2.00;1.60;;;;;;;10.24;100.00;98412.59;109443;1253;60027;-72
2024/04/19 08:07:38;;;;;;;2.60;1.70;;;;;;;10.34;100.00;98407.92;109470;1253;66830;-72
2024/04/19 08:10:08;;;;;;;1.80;1.50;;;;;;;10.48;100.00;98402.92;109413;1253;59846;-72
2024/04/19 08:12:34;;;;;;;2.20;1.70;;;;;;;10.54;100.00;98401.06;109375;1253;63769;-73
2024/04/19 08:15:00;;;;;;;1.90;1.40;;;;;;;10.48;100.00;98400.95;109429;1253;59798;-72
2024/04/19 08:17:27;;;;;;;1.80;1.50;;;;;;;10.60;100.00;98396.19;109441;1254;59806;-72
2024/04/19 08:19:53;;;;;;;2.40;1.90;;;;;;;10.86;100.00;98391.66;109452;1252;59850;-72
2024/04/19 08:22:19;;;;;;;2.80;1.70;;;;;;;11.18;100.00;98384.58;109443;1253;59900;-72
2024/04/19 08:24:45;;;;;;;3.20;2.30;;;;;;;11.33;100.00;98386.77;109458;1253;59938;-72
2024/04/19 08:27:12;;;;;;;6.70;3.30;;;;;;;11.42;100.00;98378.73;109404;1253;59767;-72
2024/04/19 08:29:38;;;;;;;6.60;3.60;;;;;;;11.59;100.00;98369.73;109418;1253;59838;-73
2024/04/19 08:32:05;;;;;;;9.90;3.10;;;;;;;11.72;100.00;98368.69;109429;1253;59798;-72
2024/04/19 08:34:32;;;;;;;3.70;2.00;;;;;;;11.83;100.00;98367.96;109459;1256;59836;-72
2024/04/19 08:36:58;;;;;;;1.70;1.50;;;;;;;11.86;100.00;98366.08;109161;1253;59917;-72
2024/04/19 08:39:25;;;;;;;2.30;1.80;;;;;;;11.83;98.64;98366.10;109386;1253;60105;-72
2024/04/19 08:41:55;;;;;;;2.90;1.90;;;;;;;11.87;92.64;98362.67;109435;1253;60750;-73
2024/04/19 08:44:24;;;;;;;2.90;2.20;;;;;;;12.00;91.60;98353.38;109213;1258;65664;-73
2024/04/19 08:46:53;;;;;;;2.40;2.20;;;;;;;12.14;86.67;98354.17;109412;1253;59812;-72
2024/04/19 08:49:21;;;;;;;2.70;2.50;;;;;;;12.21;86.90;98354.45;109402;1253;64065;-72
2024/04/19 08:51:48;;;;;;;3.10;2.70;;;;;;;12.08;82.42;98352.89;109369;1257;59751;-72
2024/04/19 08:54:15;;;;;;;3.60;2.30;;;;;;;11.93;82.42;98352.56;109458;1256;60640;-72
2024/04/19 08:56:42;;;;;;;3.10;2.30;;;;;;;11.96;80.36;98348.38;109517;1254;66860;-72
2024/04/19 08:59:08;;;;;;;2.40;2.20;;;;;;;12.04;77.45;98350.36;109283;1254;60258;-71
2024/04/19 09:01:36;;;;;;;3.40;2.20;;;;;;;12.12;77.95;98343.70;109483;1254;59839;-72
2024/04/19 09:04:02;;;;;;;2.60;2.10;;;;;;;12.27;77.84;98338.70;109495;1252;59816;-71
2024/04/19 09:06:29;;;;;;;2.80;2.50;;;;;;;12.42;78.44;98333.34;109486;1253;59795;-71
2024/04/19 09:08:56;;;;;;;3.10;2.90;;;;;;;12.55;76.78;98325.01;109499;1254;60045;-74
2024/04/19 09:11:22;;;;;;;2.80;2.30;;;;;;;12.65;77.24;98328.45;109491;1254;60186;-73
2024/04/19 09:13:48;;;;;;;2.90;2.60;;;;;;;12.71;76.59;98327.27;109164;1254;60076;-72
2024/04/19 09:16:15;;;;;;;3.00;2.40;;;;;;;12.68;75.76;98320.00;109458;1257;59908;-72
2024/04/19 09:18:47;;;;;;;3.80;2.40;;;;;;;12.57;75.35;98316.19;109492;1254;59919;-72
2024/04/19 09:21:13;;;;;;;2.80;2.30;;;;;;;12.77;77.93;98314.05;109513;1254;66848;-72
2024/04/19 09:23:39;;;;;;;5.60;2.80;;;;;;;13.08;76.95;98315.67;109486;1254;59734;-72
2024/04/19 09:26:07;;;;;;;4.50;2.20;;;;;;;13.29;75.59;98309.52;109472;1254;59983;-73
2024/04/19 09:28:34;;;;;;;2.40;2.20;;;;;;;13.47;74.05;98311.31;109505;1256;59757;-73
2024/04/19 09:31:00;;;;;;;2.10;1.90;;;;;;;13.54;72.37;98310.34;109488;1254;59792;-71
2024/04/19 09:33:26;;;;;;;3.40;2.10;;;;;;;13.63;73.33;98303.98;109495;1253;59946;-72
2024/04/19 09:35:56;;;;;;;2.30;2.10;;;;;;;13.76;72.66;98299.75;109560;1256;59951;-73
2024/04/19 09:38:23;;;;;;;2.60;2.30;;;;;;;13.65;72.54;98297.77;109494;1254;62864;-73
2024/04/19 09:40:50;;;;;;;5.30;1.80;;;;;;;13.44;72.21;98290.90;109509;1254;59771;-73
2024/04/19 09:43:23;;;;;;;2.20;2.00;;;;;;;13.24;72.59;98297.88;109491;1254;59687;-73
2024/04/19 09:45:56;;;;;;;2.20;2.00;;;;;;;13.00;72.27;98301.05;109479;1254;66847;-72
2024/04/19 09:48:28;;;;;;;2.70;2.10;;;;;;;12.91;73.88;98299.49;109532;1253;60145;-72
2024/04/19 09:50:57;;;;;;;4.10;2.70;;;;;;;13.07;74.20;98295.39;109494;1253;64057;-73
2024/04/19 09:53:30;;;;;;;2.50;2.20;;;;;;;13.09;74.10;98291.14;109237;1254;59786;-73
2024/04/19 09:56:34;;;;;;;2.50;1.80;;;;;;;12.87;73.55;98285.72;109202;1253;61660;-72
2024/04/19 09:59:01;;;;;;;2.70;2.50;;;;;;;12.85;73.64;98276.15;109506;1254;68135;-73
2024/04/19 10:01:28;;;;;;;2.30;2.20;;;;;;;12.78;74.12;98271.27;109474;1253;61027;-73
2024/04/19 10:03:55;;;;;;;4.40;2.00;;;;;;;12.87;75.85;98269.88;109442;1254;64095;-74
2024/04/19 10:06:25;;;;;;;2.70;2.10;;;;;;;12.99;75.72;98270.23;109499;1252;59841;-73
2024/04/19 10:08:52;;;;;;;2.20;2.00;;;;;;;12.97;75.52;98266.31;109490;1252;59693;-73
2024/04/19 10:11:19;;;;;;;2.60;1.80;;;;;;;12.92;76.70;98261.20;109131;1254;65576;-73
2024/04/19 10:13:45;;;;;;;3.10;2.10;;;;;;;12.89;76.65;98258.48;109529;1254;59835;-73
2024/04/19 10:16:12;;;;;;;2.40;1.60;;;;;;;12.83;75.92;98261.30;109157;1253;59865;-73
2024/04/19 10:18:38;;;;;;;1.80;1.30;;;;;;;12.83;76.15;98254.37;109456;1253;60037;-73
2024/04/19 10:21:05;;;;;;;4.10;1.90;;;;;;;12.80;75.67;98250.73;109527;1254;60035;-73
2024/04/19 10:23:31;;;;;;;3.90;2.00;;;;;;;12.75;75.64;98245.77;109467;1254;76558;-71
2024/04/19 10:25:58;;;;;;;3.80;1.80;;;;;;;12.78;76.21;98240.79;109473;1254;59770;-74
2024/04/19 10:28:28;;;;;;;2.00;1.70;;;;;;;12.83;75.66;98237.56;109479;1254;62868;-74
2024/04/19 10:30:54;;;;;;;3.90;1.80;;;;;;;12.86;73.98;98234.52;109458;1254;59755;-72
2024/04/19 10:33:21;;;;;;;1.90;1.70;;;;;;;12.89;73.52;98231.40;109503;1254;60011;-73
2024/04/19 10:35:47;;;;;;;1.90;1.80;;;;;;;12.99;73.79;98225.11;109471;1254;59753;-72
2024/04/19 10:38:13;;;;;;;2.60;1.50;;;;;;;13.01;72.22;98213.40;109488;1252;59759;-72
2024/04/19 10:40:40;;;;;;;1.80;1.60;;;;;;;13.04;71.16;98211.67;109510;1254;60241;-74
2024/04/19 10:43:07;;;;;;;4.00;1.50;;;;;;;13.04;68.85;98210.30;109473;1252;60104;-72
2024/04/19 10:45:35;;;;;;;2.00;1.50;;;;;;;13.01;69.47;98203.16;109519;1252;59746;-73
2024/04/19 10:48:04;;;;;;;3.90;1.60;;;;;;;12.95;69.38;98195.89;109493;1252;66526;-73
2024/04/19 10:50:31;;;;;;;2.10;1.90;;;;;;;13.07;70.21;98194.14;109493;1252;60182;-73
2024/04/19 10:52:57;;;;;;;4.00;2.20;;;;;;;13.28;70.20;98193.88;109451;1254;62509;-73
2024/04/19 10:55:27;;;;;;;4.60;2.60;;;;;;;13.53;70.33;98187.77;109476;1254;59760;-73
2024/04/19 10:57:55;;;;;;;3.90;1.90;;;;;;;13.82;70.72;98178.17;109478;1253;59846;-73
2024/04/19 11:00:22;;;;;;;2.20;2.00;;;;;;;14.09;70.60;98168.89;109499;1253;67982;-73
2024/04/19 11:02:49;;;;;;;2.40;1.90;;;;;;;14.03;68.66;98171.56;109492;1254;59759;-73
2024/04/19 11:05:15;;;;;;;2.40;2.10;;;;;;;13.89;68.29;98171.28;109480;1254;62524;-74
2024/04/19 11:07:42;;;;;;;3.10;2.10;;;;;;;13.94;68.29;98163.64;109443;1254;59740;-73
2024/04/19 11:10:09;;;;;;;3.00;2.50;;;;;;;14.13;69.41;98165.61;109546;1253;59821;-73
2024/04/19 11:12:36;;;;;;;2.40;2.20;;;;;;;14.03;67.36;98160.66;109500;1252;65303;-74
2024/04/19 11:15:03;;;;;;;3.50;2.30;;;;;;;13.79;67.25;98153.46;109465;1254;59829;-73
2024/04/19 11:17:30;;;;;;;3.30;2.10;;;;;;;13.71;68.06;98146.17;109336;1253;131128;-73
2024/04/19 11:19:56;;;;;;;2.80;2.20;;;;;;;13.64;66.48;98147.34;109495;1253;59805;-73
2024/04/19 11:22:23;;;;;;;1.90;1.70;;;;;;;13.73;66.75;98142.06;109526;1254;59802;-72